الصفحة الرئيسية
METAR-TAF:

METAR-TAF

مطار :

Jandakot, أستراليا

دائرة عرض: 32-05-51S, خط طول: 115-52-52E, ارتفاع: 30 متر

مراقبة الطقس الحالي

تاريخ ووقت الإصدار 22 دقيقة قبل الساعة 17:30UTC
ريح 6 عقدة من الشرق
درجة الحرارة 16°درجة مئوية
الرطوبة 63%
ضغط 1020 hPa
الرؤية 10 كم أو أكثر

METAR: YPJT 221730Z AUTO 10006KT 9999 // NCD 16/09 Q1020 RF00.0/000.0

زمن: 01:52 (17:52 UTC)

توقعات

تاريخ ووقت الإصدار 51 دقيقة قبل الساعة 17:01UTC
التوقعات صالحة من22 الساعة 18 UTC إلى 23 الساعة 12 UTC
ريح 9 عقدة من الشرق
الرؤية 10 كم أو أكثر
الغيوم لا تقل 1500 م ولا وجود لمزنة ركامية السحاب الأسود
من 23 الساعة 0600 UTC
ريح 8 عقدة من الجنوب الغربي
الرؤية 10 كم أو أكثر
الغيوم لا تقل 1500 م ولا وجود لمزنة ركامية السحاب الأسود
من 23 الساعة 1000 UTC
ريح 8 عقدة من الجنوب
الرؤية 10 كم أو أكثر
الغيوم لا تقل 1500 م ولا وجود لمزنة ركامية السحاب الأسود

TAF: YPJT 221701Z 2218/2312 09009KT CAVOK FM230600 23008KT CAVOK FM231000 17008KT CAVOK

أرصاد الطقس والتوقعات من أكثر من 4000 مطار (تقارير الطقس للمطار METAR والتنبؤ بالطقس بالمطارTAF).

المحطات المتاحة هي النقط الصفراء والحمراء على الخريطة.

حرك المؤشر فوق النقطة لمعرفة اسم المحطة.

ثم انقر لمعرفة أرصاد وتوقعات الطقس.

لتغيير الخارطة: اضغط على الأزرار الخضراء مع رمز الصليب الأسود للتكبير. على الزر الأخضر مع شرطة للتصغير، أو على الأسهم الخضراء للخرائط المجاورة.


METAR-TAF: